createdAt,value
2019-01-20T00:01:32.363Z,6.40
2019-01-20T00:07:16.875Z,5.97
2019-01-20T00:13:03.019Z,6.10
2019-01-20T00:18:49.320Z,6.57
2019-01-20T00:21:51.427Z,6.47
2019-01-20T00:27:37.793Z,6.67
2019-01-20T00:33:23.585Z,6.43
2019-01-20T00:39:09.082Z,6.13
2019-01-20T00:45:02.378Z,6.83
2019-01-20T00:47:57.210Z,6.53
2019-01-20T00:53:43.040Z,6.07
2019-01-20T00:59:28.755Z,7.37
2019-01-20T01:05:13.277Z,6.73
2019-01-20T01:08:14.431Z,6.00
2019-01-20T01:13:59.263Z,6.13
2019-01-20T01:19:45.736Z,6.73
2019-01-20T01:25:31.299Z,6.47
2019-01-20T01:28:32.103Z,6.90
2019-01-20T01:34:18.440Z,6.83
2019-01-20T01:40:04.766Z,6.33
2019-01-20T01:45:51.140Z,6.57
2019-01-20T01:48:52.319Z,6.60
2019-01-20T01:54:38.248Z,6.60
2019-01-20T01:57:39.514Z,6.10
2019-01-20T02:00:40.132Z,6.43
2019-01-20T02:03:40.652Z,6.53
2019-01-20T02:10:20.526Z,6.40
2019-01-20T02:16:07.181Z,6.20
2019-01-20T02:19:08.439Z,6.17
2019-01-20T02:22:09.207Z,6.90
2019-01-20T02:25:10.184Z,5.93
2019-01-20T02:30:57.609Z,6.10
2019-01-20T02:36:40.870Z,6.03
2019-01-20T02:42:25.788Z,6.27
2019-01-20T02:45:26.378Z,5.67
2019-01-20T02:51:11.414Z,6.37
2019-01-20T02:56:57.492Z,6.83
2019-01-20T02:59:57.838Z,6.13
2019-01-20T03:02:59.434Z,6.93
2019-01-20T03:06:00.743Z,6.37
2019-01-20T03:09:02.375Z,6.23
2019-01-20T03:14:47.862Z,6.60
2019-01-20T03:17:49.403Z,6.50
2019-01-20T03:23:35.136Z,6.50
2019-01-20T03:29:21.622Z,6.90
2019-01-20T03:35:08.242Z,6.43
2019-01-20T03:38:09.587Z,6.83
2019-01-20T03:43:54.191Z,6.33
2019-01-20T03:49:43.539Z,6.87
2019-01-20T03:55:28.857Z,6.90
2019-01-20T04:01:34.647Z,6.60
2019-01-20T04:07:20.444Z,6.80
2019-01-20T04:10:21.759Z,6.10
2019-01-20T04:16:08.079Z,6.53
2019-01-20T04:21:57.415Z,7.00
2019-01-20T04:27:44.778Z,6.63
2019-01-20T04:33:29.441Z,6.90
2019-01-20T04:36:30.730Z,7.57
2019-01-20T04:48:34.050Z,7.20
2019-01-20T04:51:35.734Z,7.07
2019-01-20T04:57:22.336Z,8.03
2019-01-20T05:03:08.010Z,7.30
2019-01-20T05:08:53.803Z,7.23
2019-01-20T05:11:54.963Z,7.37
2019-01-20T05:17:39.974Z,7.30
2019-01-20T05:26:35.937Z,6.90
2019-01-20T05:29:37.357Z,7.20
2019-01-20T05:35:47.803Z,7.10
2019-01-20T05:38:46.902Z,7.87
2019-01-20T05:44:51.466Z,7.43
2019-01-20T05:47:52.796Z,7.13
2019-01-20T05:53:38.187Z,7.77
2019-01-20T05:59:22.170Z,7.50
2019-01-20T06:05:08.120Z,7.77
2019-01-20T06:11:34.290Z,7.53
2019-01-20T06:14:35.751Z,7.60
2019-01-20T06:20:21.489Z,7.50
2019-01-20T06:23:22.954Z,8.97
2019-01-20T06:29:08.654Z,8.13
2019-01-20T06:34:55.142Z,8.10
2019-01-20T06:40:40.054Z,8.00
2019-01-20T06:43:40.627Z,7.57
2019-01-20T06:46:41.158Z,7.90
2019-01-20T06:49:42.722Z,7.57
2019-01-20T06:52:42.930Z,7.90
2019-01-20T06:55:43.580Z,7.70
2019-01-20T06:58:44.629Z,7.40
2019-01-20T07:04:30.818Z,7.57
2019-01-20T07:10:16.636Z,7.53
2019-01-20T07:16:02.787Z,7.47
2019-01-20T07:19:02.395Z,7.13
2019-01-20T07:25:04.695Z,7.43
2019-01-20T07:31:06.609Z,8.00
2019-01-20T07:34:16.210Z,8.60
2019-01-20T07:37:18.634Z,7.80
2019-01-20T07:40:20.378Z,7.63
2019-01-20T07:46:06.252Z,7.60
2019-01-20T07:51:51.579Z,8.17
2019-01-20T07:54:50.995Z,8.13
2019-01-20T08:04:41.327Z,8.30
2019-01-20T08:10:26.603Z,9.80
2019-01-20T08:16:13.140Z,10.07
2019-01-20T08:21:58.758Z,9.77
2019-01-20T08:28:38.044Z,9.37
2019-01-20T08:31:39.404Z,9.07
2019-01-20T08:37:28.804Z,9.57
2019-01-20T08:43:11.717Z,10.97
2019-01-20T08:46:13.014Z,11.03
2019-01-20T08:51:58.595Z,9.70
2019-01-20T08:57:43.398Z,9.70
2019-01-20T09:03:27.266Z,10.27
2019-01-20T09:09:12.592Z,10.60
2019-01-20T09:12:12.143Z,10.83
2019-01-20T09:17:56.882Z,10.57
2019-01-20T09:27:53.686Z,10.23
2019-01-20T09:34:01.115Z,9.40
2019-01-20T09:40:05.791Z,10.53
2019-01-20T09:45:51.711Z,9.60
2019-01-20T09:51:36.502Z,10.43
2019-01-20T09:57:23.186Z,10.63
2019-01-20T10:03:16.794Z,11.20
2019-01-20T10:06:17.998Z,11.87
2019-01-20T10:12:29.675Z,10.30
2019-01-20T10:18:14.366Z,9.93
2019-01-20T10:23:59.719Z,10.87
2019-01-20T10:29:45.419Z,12.40
2019-01-20T10:32:47.980Z,11.77
2019-01-20T10:38:37.195Z,11.10
2019-01-20T10:44:21.704Z,11.93
2019-01-20T10:50:07.564Z,13.07
2019-01-20T10:53:08.969Z,11.23
2019-01-20T10:58:54.492Z,12.57
2019-01-20T11:04:45.915Z,13.03
2019-01-20T11:10:31.578Z,14.03
2019-01-20T11:13:32.751Z,13.30
2019-01-20T11:19:18.586Z,13.17
2019-01-20T11:25:04.379Z,15.47
2019-01-20T11:30:50.822Z,15.67
2019-01-20T11:33:51.977Z,14.50
2019-01-20T11:39:36.771Z,15.27
2019-01-20T11:45:22.419Z,14.97
2019-01-20T11:51:08.071Z,15.50
2019-01-20T11:54:09.574Z,15.10
2019-01-20T11:59:54.623Z,14.40
2019-01-20T12:05:40.265Z,14.70
2019-01-20T12:11:25.274Z,15.40
2019-01-20T12:14:26.454Z,14.37
2019-01-20T12:17:27.395Z,14.60
2019-01-20T12:20:28.027Z,14.00
2019-01-20T12:26:14.263Z,15.90
2019-01-20T12:32:00.769Z,15.90
2019-01-20T12:35:02.259Z,15.90
2019-01-20T12:40:47.880Z,15.43
2019-01-20T12:46:32.989Z,13.23
2019-01-20T12:52:19.559Z,13.77
2019-01-20T12:55:20.803Z,14.47
2019-01-20T13:01:06.623Z,13.47
2019-01-20T13:06:51.503Z,15.13
2019-01-20T13:12:36.431Z,14.13
2019-01-20T13:15:38.120Z,14.33
2019-01-20T13:21:23.754Z,14.27
2019-01-20T13:27:09.296Z,15.27
2019-01-20T13:32:54.762Z,14.60
2019-01-20T13:35:55.962Z,15.27
2019-01-20T13:41:41.303Z,15.00
2019-01-20T13:47:27.322Z,16.30
2019-01-20T13:53:12.924Z,15.30
2019-01-20T13:58:57.690Z,15.73
2019-01-20T14:01:58.850Z,16.50
2019-01-20T14:07:43.874Z,17.77
2019-01-20T14:13:29.781Z,16.77
2019-01-20T14:19:21.723Z,17.60
2019-01-20T14:22:18.975Z,17.87
2019-01-20T14:28:05.377Z,16.63
2019-01-20T14:33:50.122Z,17.23
2019-01-20T14:39:36.389Z,16.07
2019-01-20T14:42:37.750Z,17.37
2019-01-20T14:48:23.598Z,16.20
2019-01-20T14:54:09.583Z,17.23
2019-01-20T14:59:55.659Z,16.77
2019-01-20T15:02:57.215Z,16.27
2019-01-20T15:05:59.706Z,17.30
2019-01-20T15:09:00.534Z,16.10
2019-01-20T15:14:46.199Z,16.80
2019-01-20T15:17:47.455Z,16.17
2019-01-20T15:23:33.907Z,18.70
2019-01-20T15:26:36.855Z,17.90
2019-01-20T15:29:36.444Z,17.60
2019-01-20T15:35:22.168Z,17.50
2019-01-20T15:38:23.539Z,18.10
2019-01-20T15:44:08.068Z,17.47
2019-01-20T15:49:53.674Z,16.43
2019-01-20T15:52:54.926Z,17.43
2019-01-20T15:55:55.561Z,17.90
2019-01-20T15:58:55.054Z,18.53
2019-01-20T16:04:40.883Z,16.10
2019-01-20T16:08:00.971Z,17.00
2019-01-20T16:11:02.471Z,16.10
2019-01-20T16:14:03.011Z,16.47
2019-01-20T16:19:48.810Z,19.67
2019-01-20T16:28:54.309Z,17.70
2019-01-20T16:34:42.637Z,16.93
2019-01-20T16:37:43.894Z,18.73
2019-01-20T16:40:44.697Z,18.57
2019-01-20T16:49:36.173Z,19.30
2019-01-20T16:59:03.062Z,18.63
2019-01-20T17:15:27.507Z,19.33
2019-01-20T17:21:12.290Z,19.73
2019-01-20T17:26:57.382Z,18.80
2019-01-20T17:29:58.442Z,19.30
2019-01-20T17:38:56.122Z,17.40
2019-01-20T17:41:57.623Z,18.83
2019-01-20T17:44:59.255Z,18.70
2019-01-20T17:50:43.931Z,16.83
2019-01-20T17:59:55.658Z,17.80
2019-01-20T18:02:56.874Z,17.67
2019-01-20T18:05:56.358Z,18.13
2019-01-20T18:08:58.479Z,17.53
2019-01-20T18:11:59.296Z,18.67
2019-01-20T18:17:45.605Z,19.00
2019-01-20T18:20:46.978Z,17.17
2019-01-20T18:26:33.866Z,18.40
2019-01-20T18:32:19.182Z,18.37
2019-01-20T18:38:04.630Z,18.00
2019-01-20T18:41:06.366Z,19.80
2019-01-20T18:44:08.010Z,18.77
2019-01-20T18:47:08.780Z,18.83
2019-01-20T18:52:54.615Z,18.93
2019-01-20T18:58:40.387Z,21.97
2019-01-20T19:01:40.906Z,21.33
2019-01-20T19:07:32.312Z,18.90
2019-01-20T19:13:17.175Z,17.77
2019-01-20T19:19:02.565Z,17.50
2019-01-20T19:22:03.605Z,17.80
2019-01-20T19:27:48.878Z,18.47
2019-01-20T19:33:34.362Z,18.07
2019-01-20T19:36:54.829Z,17.50
2019-01-20T19:42:40.423Z,17.67
2019-01-20T19:48:28.092Z,17.37
2019-01-20T19:54:15.326Z,16.13
2019-01-20T19:57:16.339Z,16.90
2019-01-20T20:03:01.134Z,17.77
2019-01-20T20:09:07.246Z,18.63
2019-01-20T20:14:52.850Z,18.83
2019-01-20T20:20:38.593Z,19.53
2019-01-20T20:23:39.971Z,18.67
2019-01-20T20:29:25.806Z,18.47
2019-01-20T20:38:20.975Z,18.40
2019-01-20T20:41:20.467Z,18.47
2019-01-20T20:44:22.075Z,17.80
2019-01-20T20:50:09.206Z,19.00
2019-01-20T20:55:55.582Z,18.53
2019-01-20T21:01:44.130Z,18.53
2019-01-20T21:07:29.014Z,18.60
2019-01-20T21:13:14.948Z,19.57
2019-01-20T21:16:15.537Z,19.10
2019-01-20T21:29:12.427Z,16.53
2019-01-20T21:32:11.887Z,16.83
2019-01-20T21:37:58.095Z,16.80
2019-01-20T21:43:45.688Z,18.20
2019-01-20T21:49:33.111Z,17.23
2019-01-20T21:56:13.795Z,16.97
2019-01-20T21:59:20.134Z,17.13
2019-01-20T22:05:59.758Z,16.73
2019-01-20T22:15:08.441Z,17.00
2019-01-20T22:21:48.502Z,16.63
2019-01-20T22:24:52.751Z,16.47
2019-01-20T22:30:42.703Z,16.73
2019-01-20T22:36:28.253Z,16.70
2019-01-20T22:42:14.603Z,16.40
2019-01-20T22:45:13.842Z,16.27
2019-01-20T22:50:59.315Z,17.33
2019-01-20T22:56:45.606Z,19.67
2019-01-20T23:05:35.442Z,19.17
2019-01-20T23:11:21.727Z,18.73
2019-01-20T23:14:41.970Z,17.63
2019-01-20T23:17:43.862Z,17.53
2019-01-20T23:20:45.483Z,18.53
2019-01-20T23:26:31.295Z,17.27
2019-01-20T23:32:16.770Z,18.43
2019-01-20T23:41:26.574Z,18.50
2019-01-20T23:50:22.077Z,18.73
2019-01-20T23:56:47.869Z,17.17
